Time;durP1;ratioP1;P1;durP2;ratioP2;P2;SDS_P1;SDS_P2;PMS_P1;PMS_P2;Temp;Humidity;BMP_temperature;BMP_pressure;BME280_temperature;BME280_humidity;BME280_pressure;Samples;Min_cycle;Max_cycle;Signal;HPM_P1;HPM_P2
2021/05/24 00:02:15;;;;;;;1.85;0.90;;;;;;;19.57;46.04;100914.66;5033691;28;20037;-58
2021/05/24 00:04:40;;;;;;;2.05;0.90;;;;;;;19.56;45.86;100915.63;5033334;28;20030;-59
2021/05/24 00:07:06;;;;;;;1.67;0.80;;;;;;;19.57;45.81;100921.78;5033666;28;20079;-58
2021/05/24 00:09:32;;;;;;;2.38;0.90;;;;;;;19.56;45.85;100906.88;5034040;28;20267;-59
2021/05/24 00:11:58;;;;;;;1.80;0.88;;;;;;;19.55;45.56;100906.03;5033342;28;20098;-59
2021/05/24 00:14:25;;;;;;;2.72;0.98;;;;;;;19.55;45.69;100903.41;5033274;28;20465;-58
2021/05/24 00:16:52;;;;;;;1.30;0.70;;;;;;;19.54;45.71;100898.25;5033507;28;20021;-58
2021/05/24 00:19:17;;;;;;;1.27;0.65;;;;;;;19.53;45.91;100900.03;5032485;28;20125;-59
2021/05/24 00:21:43;;;;;;;2.13;1.00;;;;;;;19.51;45.64;100894.06;5033769;28;20112;-58
2021/05/24 00:24:08;;;;;;;2.28;0.95;;;;;;;19.52;45.96;100884.34;5033552;28;20531;-58
2021/05/24 00:26:34;;;;;;;1.30;0.70;;;;;;;19.52;45.93;100889.63;5032784;28;20109;-58
2021/05/24 00:28:59;;;;;;;2.25;0.90;;;;;;;19.51;45.57;100888.75;5033169;28;20037;-58
2021/05/24 00:31:25;;;;;;;2.83;0.95;;;;;;;19.50;45.98;100876.53;5032968;28;20033;-57
2021/05/24 00:33:50;;;;;;;2.03;0.85;;;;;;;19.49;45.54;100866.94;5032500;28;20056;-58
2021/05/24 00:36:16;;;;;;;3.75;0.95;;;;;;;19.48;45.66;100864.41;5033101;28;20021;-58
2021/05/24 00:38:41;;;;;;;2.00;0.80;;;;;;;19.49;45.68;100874.03;5033057;28;20043;-58
2021/05/24 00:41:06;;;;;;;2.63;1.03;;;;;;;19.48;45.74;100869.69;5032300;28;20419;-57
2021/05/24 00:43:32;;;;;;;1.55;0.82;;;;;;;19.48;45.77;100861.78;5033616;28;20358;-58
2021/05/24 00:46:00;;;;;;;2.92;1.00;;;;;;;19.47;45.43;100860.09;5032109;28;20021;-58
2021/05/24 00:48:28;;;;;;;2.08;0.80;;;;;;;19.46;45.60;100859.25;5033142;28;20026;-58
2021/05/24 00:50:56;;;;;;;1.73;0.70;;;;;;;19.46;45.70;100859.25;5033587;28;20025;-58
2021/05/24 00:53:25;;;;;;;2.22;0.80;;;;;;;19.45;45.67;100851.47;5032518;28;20108;-57
2021/05/24 00:55:50;;;;;;;2.28;1.00;;;;;;;19.45;45.55;100847.00;5033500;28;20152;-58
2021/05/24 00:58:15;;;;;;;2.10;0.90;;;;;;;19.44;45.90;100844.50;5032937;28;20112;-59
2021/05/24 01:00:47;;;;;;;2.40;1.00;;;;;;;19.43;45.77;100843.66;5032482;28;20109;-59
2021/05/24 01:03:14;;;;;;;2.05;0.90;;;;;;;19.42;45.52;100841.97;5033014;28;20033;-58
2021/05/24 01:05:40;;;;;;;2.22;0.93;;;;;;;19.42;45.78;100834.06;5033244;28;20092;-59
2021/05/24 01:08:07;;;;;;;1.65;0.80;;;;;;;19.42;45.91;100827.94;5031998;28;20461;-58
2021/05/24 01:10:33;;;;;;;2.67;0.90;;;;;;;19.42;45.43;100825.28;5032902;28;20396;-57
2021/05/24 01:13:00;;;;;;;2.33;0.82;;;;;;;19.41;45.86;100816.53;5032965;28;20029;-57
2021/05/24 01:15:28;;;;;;;2.97;1.13;;;;;;;19.39;45.52;100806.09;5032114;28;20025;-57
2021/05/24 01:17:55;;;;;;;2.20;1.02;;;;;;;19.39;45.51;100806.09;5032875;28;20083;-58
2021/05/24 01:20:21;;;;;;;1.20;0.63;;;;;;;19.39;45.64;100813.19;5032551;28;20029;-57
2021/05/24 01:23:07;;;;;;;2.05;0.80;;;;;;;19.38;45.55;100800.94;5032037;28;20434;-58
2021/05/24 01:25:38;;;;;;;2.03;0.70;;;;;;;19.36;45.47;100792.34;5032237;28;20065;-57
2021/05/24 01:28:05;;;;;;;1.70;0.80;;;;;;;19.37;45.82;100793.97;5032150;28;20480;-58
2021/05/24 01:30:31;;;;;;;2.53;0.80;;;;;;;19.26;45.89;100772.94;5032034;28;20060;-58
2021/05/24 01:32:57;;;;;;;2.22;0.90;;;;;;;19.35;45.66;100794.13;5032746;28;20032;-57
2021/05/24 01:35:22;;;;;;;2.00;0.70;;;;;;;19.36;45.87;100792.34;5031447;28;20492;-58
2021/05/24 01:37:48;;;;;;;1.75;0.70;;;;;;;19.34;45.68;100791.59;5032354;28;20037;-58
2021/05/24 01:40:14;;;;;;;3.20;0.90;;;;;;;19.32;45.46;100786.47;5032104;28;20036;-57
2021/05/24 01:42:39;;;;;;;2.88;0.77;;;;;;;19.32;45.61;100783.81;5031284;28;20088;-58
2021/05/24 01:45:06;;;;;;;3.40;0.90;;;;;;;19.34;45.35;100783.69;5032305;28;20035;-58
2021/05/24 01:47:32;;;;;;;2.03;0.80;;;;;;;19.32;45.62;100775.06;5032469;28;20034;-57
2021/05/24 01:49:57;;;;;;;1.95;0.80;;;;;;;19.31;45.46;100782.16;5032204;28;20049;-57
2021/05/24 01:52:23;;;;;;;1.63;0.85;;;;;;;19.31;45.80;100768.09;5032422;28;20140;-58
2021/05/24 01:54:48;;;;;;;1.52;0.82;;;;;;;19.31;45.79;100771.59;5035642;28;20099;-57
2021/05/24 01:57:14;;;;;;;1.45;0.73;;;;;;;19.29;45.68;100773.50;5038522;28;20029;-58
2021/05/24 01:59:39;;;;;;;1.92;0.70;;;;;;;19.31;45.38;100773.38;5039142;28;20100;-58
2021/05/24 02:02:06;;;;;;;1.50;0.60;;;;;;;19.29;45.81;100772.69;5040850;28;20063;-59
2021/05/24 02:04:31;;;;;;;1.98;0.90;;;;;;;19.30;45.93;100767.25;5034264;28;20092;-58
2021/05/24 02:06:58;;;;;;;1.65;0.73;;;;;;;19.29;45.47;100762.94;5032822;28;20107;-58
2021/05/24 02:09:24;;;;;;;1.90;0.80;;;;;;;19.29;45.84;100762.13;5032174;28;20026;-57
2021/05/24 02:11:50;;;;;;;1.95;0.70;;;;;;;19.28;45.48;100761.28;5031658;28;20028;-57
2021/05/24 02:14:16;;;;;;;1.48;0.70;;;;;;;19.29;45.49;100756.81;5032176;28;20038;-57
2021/05/24 02:16:46;;;;;;;1.30;0.70;;;;;;;19.28;45.73;100757.78;5032393;28;20465;-57
2021/05/24 02:19:13;;;;;;;1.90;0.70;;;;;;;19.26;45.67;100763.22;5031322;28;20084;-58
2021/05/24 02:21:39;;;;;;;1.55;0.82;;;;;;;19.27;45.55;100754.31;5032237;28;20030;-58
2021/05/24 02:24:06;;;;;;;1.38;0.80;;;;;;;19.26;45.46;100759.75;5031555;28;20047;-60
2021/05/24 02:26:32;;;;;;;2.35;0.90;;;;;;;19.25;45.56;100755.41;5031119;28;20030;-59
2021/05/24 02:29:00;;;;;;;1.20;0.65;;;;;;;19.25;45.60;100758.06;5031826;28;20152;-58
2021/05/24 02:31:26;;;;;;;2.03;0.73;;;;;;;19.25;45.68;100763.34;5031335;28;20103;-58
2021/05/24 02:33:51;;;;;;;0.90;0.60;;;;;;;19.25;45.74;100753.63;5031445;28;20022;-57
2021/05/24 02:36:17;;;;;;;2.90;0.77;;;;;;;19.24;45.63;100748.47;5031595;28;20041;-58
2021/05/24 02:38:42;;;;;;;1.10;0.70;;;;;;;19.24;45.88;100744.03;5031116;28;20638;-58
2021/05/24 02:41:11;;;;;;;1.20;0.63;;;;;;;19.21;45.80;100742.47;5031633;28;20427;-58
2021/05/24 02:43:36;;;;;;;1.77;0.70;;;;;;;19.22;45.45;100738.03;5031903;28;20030;-58
2021/05/24 02:46:01;;;;;;;1.30;0.73;;;;;;;19.22;45.31;100745.97;5030577;28;20190;-58
2021/05/24 02:48:29;;;;;;;1.00;0.60;;;;;;;19.21;45.58;100739.81;5031723;28;20270;-58
2021/05/24 02:50:55;;;;;;;1.70;0.60;;;;;;;19.18;45.61;100739.25;5031664;28;20029;-58
2021/05/24 02:53:20;;;;;;;3.05;0.98;;;;;;;19.20;45.66;100730.25;5030766;28;20021;-58
2021/05/24 02:55:45;;;;;;;2.33;0.80;;;;;;;19.17;45.64;100732.34;5031790;28;20077;-58
2021/05/24 02:58:11;;;;;;;2.92;0.82;;;;;;;19.20;45.37;100738.19;5031253;28;20104;-57
2021/05/24 03:00:37;;;;;;;2.65;0.80;;;;;;;19.20;45.65;100735.53;5031043;28;20055;-58
2021/05/24 03:03:02;;;;;;;1.75;0.80;;;;;;;19.17;45.86;100724.41;5031316;28;20037;-58
2021/05/24 03:05:27;;;;;;;1.30;0.70;;;;;;;19.18;45.45;100728.69;5031294;28;20432;-58
2021/05/24 03:07:53;;;;;;;1.63;0.65;;;;;;;19.14;45.90;100719.38;5031015;28;20026;-57
2021/05/24 03:10:22;;;;;;;1.90;0.70;;;;;;;19.18;45.75;100723.41;5033418;28;20110;-58
2021/05/24 03:12:47;;;;;;;1.10;0.60;;;;;;;19.18;45.56;100726.91;5035289;28;20396;-58
2021/05/24 03:15:14;;;;;;;2.17;0.80;;;;;;;19.16;45.46;100728.84;5034033;28;20029;-58
2021/05/24 03:17:40;;;;;;;1.20;0.80;;;;;;;19.16;45.57;100720.91;5035084;28;20025;-58
2021/05/24 03:20:08;;;;;;;2.75;0.73;;;;;;;19.17;45.44;100727.06;5034694;28;20021;-58
2021/05/24 03:22:33;;;;;;;2.17;0.70;;;;;;;19.16;45.38;100723.56;5034176;28;20079;-58
2021/05/24 03:24:59;;;;;;;1.45;0.70;;;;;;;19.15;45.82;100719.25;5035178;28;20025;-58
2021/05/24 03:27:24;;;;;;;1.45;0.68;;;;;;;19.16;45.83;100717.44;5034304;28;20133;-57
2021/05/24 03:29:52;;;;;;;1.55;0.70;;;;;;;19.16;45.51;100714.81;5034225;28;20017;-58
2021/05/24 03:32:17;;;;;;;1.73;0.80;;;;;;;19.14;45.63;100714.94;5034461;28;20086;-58
2021/05/24 03:34:43;;;;;;;1.85;0.70;;;;;;;19.13;45.55;100705.31;5034688;28;20105;-58
2021/05/24 03:37:08;;;;;;;1.08;0.50;;;;;;;19.13;45.47;100707.97;5033979;28;20017;-57
2021/05/24 03:39:33;;;;;;;2.03;0.60;;;;;;;19.13;45.49;100712.44;5034813;28;20040;-58
2021/05/24 03:41:59;;;;;;;2.35;0.60;;;;;;;19.13;46.01;100710.59;5033920;28;20107;-58
2021/05/24 03:44:24;;;;;;;1.27;0.57;;;;;;;19.12;45.76;100716.88;5034143;28;20041;-58
2021/05/24 03:46:50;;;;;;;2.42;0.80;;;;;;;19.12;45.62;100713.38;5034634;28;20028;-58
2021/05/24 03:49:15;;;;;;;1.58;0.60;;;;;;;19.12;45.57;100716.03;5033258;28;20171;-58
2021/05/24 03:51:40;;;;;;;1.48;0.60;;;;;;;19.12;45.43;100710.75;5034440;28;20473;-58
2021/05/24 03:54:06;;;;;;;1.13;0.70;;;;;;;19.11;45.57;100704.63;5034045;28;20053;-56
2021/05/24 03:56:31;;;;;;;1.75;0.90;;;;;;;19.10;45.68;100710.88;5033433;28;20017;-58
2021/05/24 03:58:56;;;;;;;1.85;0.60;;;;;;;19.10;45.70;100716.16;5034034;28;20411;-57
2021/05/24 04:01:24;;;;;;;1.63;0.60;;;;;;;19.10;45.54;100718.81;5033805;28;20033;-58
2021/05/24 04:03:52;;;;;;;1.98;0.60;;;;;;;19.10;45.61;100717.97;5033173;28;20033;-58
2021/05/24 04:06:17;;;;;;;1.92;0.60;;;;;;;19.09;45.82;100709.22;5033873;28;20017;-58
2021/05/24 04:08:47;;;;;;;1.08;0.60;;;;;;;19.08;45.79;100710.19;5033986;28;20037;-57
2021/05/24 04:11:14;;;;;;;1.20;0.60;;;;;;;19.08;46.00;100704.06;5032976;28;20029;-58
2021/05/24 04:13:42;;;;;;;1.10;0.50;;;;;;;19.08;45.69;100712.81;5033827;28;20049;-57
2021/05/24 04:16:07;;;;;;;0.82;0.57;;;;;;;19.05;45.87;100701.69;5033473;28;20030;-57
2021/05/24 04:18:34;;;;;;;2.45;0.77;;;;;;;19.06;45.73;100704.22;5032788;28;20029;-57
2021/05/24 04:21:03;;;;;;;1.65;0.77;;;;;;;19.01;45.50;100693.22;5032839;28;20122;-58
2021/05/24 04:23:29;;;;;;;1.73;0.65;;;;;;;19.08;45.56;100696.97;5033719;28;20028;-57
2021/05/24 04:25:54;;;;;;;1.40;0.63;;;;;;;19.06;45.41;100700.72;5033087;28;20017;-57
2021/05/24 04:28:22;;;;;;;1.40;0.57;;;;;;;19.07;45.73;100705.03;5033057;28;20046;-57
2021/05/24 04:30:48;;;;;;;2.85;0.60;;;;;;;19.06;45.60;100696.28;5033299;28;20388;-59
2021/05/24 04:33:13;;;;;;;1.92;0.60;;;;;;;19.06;45.37;100696.28;5032401;28;20104;-58
2021/05/24 04:35:38;;;;;;;1.23;0.50;;;;;;;19.06;45.32;100691.00;5033578;28;20030;-58
2021/05/24 04:38:04;;;;;;;2.05;0.73;;;;;;;19.06;45.34;100698.94;5032436;28;20290;-58
2021/05/24 04:40:33;;;;;;;1.63;0.70;;;;;;;19.03;45.67;100697.38;5033311;28;20026;-58
2021/05/24 04:42:59;;;;;;;2.25;0.68;;;;;;;19.06;45.73;100700.72;5033341;28;20311;-58
2021/05/24 04:45:25;;;;;;;1.23;0.55;;;;;;;19.01;45.43;100686.13;5032109;28;20103;-58
2021/05/24 04:47:50;;;;;;;0.88;0.50;;;;;;;19.05;45.17;100696.41;5033105;28;20049;-57
2021/05/24 04:50:19;;;;;;;1.63;0.60;;;;;;;19.01;45.55;100696.69;5032920;28;20508;-57
2021/05/24 04:52:47;;;;;;;2.92;0.80;;;;;;;19.03;45.49;100701.84;5032341;28;20531;-57
2021/05/24 04:55:13;;;;;;;1.35;0.60;;;;;;;19.04;45.37;100711.41;5032928;28;20033;-57
2021/05/24 04:57:39;;;;;;;1.55;0.60;;;;;;;19.03;45.47;100707.13;5032990;28;20101;-58
2021/05/24 05:00:08;;;;;;;2.72;0.68;;;;;;;19.03;45.29;100696.56;5031971;28;20508;-59
2021/05/24 05:02:34;;;;;;;1.20;0.70;;;;;;;19.04;45.56;100708.75;5033037;28;20028;-57
2021/05/24 05:04:59;;;;;;;1.00;0.50;;;;;;;19.03;45.83;100707.13;5033083;28;20025;-58
2021/05/24 05:07:24;;;;;;;1.52;0.50;;;;;;;19.02;45.42;100706.25;5031325;28;20041;-58
2021/05/24 05:09:50;;;;;;;1.27;1.15;;;;;;;19.02;45.45;100695.69;5032829;28;20144;-58
2021/05/24 05:12:28;;;;;;;1.33;0.70;;;;;;;19.02;45.61;100694.88;5032521;28;20025;-58
2021/05/24 05:14:53;;;;;;;2.30;0.80;;;;;;;19.02;45.60;100702.78;5031907;28;20365;-58
2021/05/24 05:17:19;;;;;;;1.10;0.50;;;;;;;19.02;45.84;100697.50;5032473;28;20029;-59
2021/05/24 05:19:44;;;;;;;1.25;0.60;;;;;;;19.00;45.67;100702.09;5032639;28;20453;-57
2021/05/24 05:22:13;;;;;;;1.60;0.60;;;;;;;18.97;45.63;100700.53;5031619;28;20026;-57
2021/05/24 05:24:38;;;;;;;1.30;0.65;;;;;;;19.00;45.58;100712.66;5032168;28;20040;-58
2021/05/24 05:27:07;;;;;;;1.63;0.63;;;;;;;19.01;45.80;100717.81;5031680;28;20025;-58
2021/05/24 05:29:32;;;;;;;1.45;0.55;;;;;;;19.04;45.67;100719.34;5031706;28;20337;-58
2021/05/24 05:31:57;;;;;;;1.48;0.68;;;;;;;19.09;45.80;100709.22;5032128;28;20021;-57
2021/05/24 05:34:23;;;;;;;1.58;0.60;;;;;;;19.10;45.88;100729.38;5031111;28;20060;-58
2021/05/24 05:36:48;;;;;;;2.10;0.60;;;;;;;19.14;45.88;100736.06;5032261;28;20112;-58
2021/05/24 05:39:16;;;;;;;0.90;0.50;;;;;;;19.18;45.65;100733.97;5031820;28;20136;-58
2021/05/24 05:41:42;;;;;;;2.22;0.70;;;;;;;19.20;45.49;100729.41;5031221;28;20567;-58
2021/05/24 05:44:07;;;;;;;1.55;0.50;;;;;;;19.21;45.91;100723.16;5031726;28;20485;-58
2021/05/24 05:46:34;;;;;;;0.80;0.50;;;;;;;19.25;45.70;100721.91;5032144;28;20484;-58
2021/05/24 05:48:59;;;;;;;1.60;0.50;;;;;;;19.25;45.68;100716.63;5031360;28;20104;-58
2021/05/24 05:51:25;;;;;;;1.38;0.60;;;;;;;19.29;45.42;100712.75;5031623;28;20052;-58
2021/05/24 05:53:55;;;;;;;1.88;0.60;;;;;;;19.33;45.58;100713.31;5032240;28;20086;-59
2021/05/24 05:56:21;;;;;;;1.15;0.50;;;;;;;19.35;45.35;100717.47;5030935;28;20095;-58
2021/05/24 05:58:46;;;;;;;1.85;0.55;;;;;;;19.39;45.21;100718.03;5032104;28;20029;-59
2021/05/24 06:01:12;;;;;;;2.45;0.77;;;;;;;19.39;45.06;100715.41;5031771;28;20041;-57
2021/05/24 06:03:37;;;;;;;1.05;0.40;;;;;;;19.39;45.21;100716.25;5031174;28;20493;-58
2021/05/24 06:06:03;;;;;;;1.33;0.50;;;;;;;19.40;45.37;100711.78;5031580;28;20083;-58
2021/05/24 06:08:28;;;;;;;2.17;0.70;;;;;;;19.43;45.21;100718.63;5031797;28;20048;-58
2021/05/24 06:10:56;;;;;;;1.08;0.50;;;;;;;19.42;45.07;100715.13;5030921;28;20445;-58
2021/05/24 06:13:21;;;;;;;1.73;0.60;;;;;;;19.40;45.40;100707.34;5031592;28;20487;-59
2021/05/24 06:15:52;;;;;;;1.40;0.50;;;;;;;19.45;45.16;100716.69;5031854;28;20440;-59
2021/05/24 06:18:17;;;;;;;2.47;0.63;;;;;;;19.49;45.20;100716.25;5030562;28;20025;-58
2021/05/24 06:20:46;;;;;;;1.77;0.60;;;;;;;19.51;45.27;100711.66;5031623;28;20027;-58
2021/05/24 06:23:12;;;;;;;1.23;0.50;;;;;;;19.52;45.05;100716.00;5031236;28;20306;-58
2021/05/24 06:25:38;;;;;;;1.60;0.60;;;;;;;19.56;45.03;100711.25;5030743;28;20067;-58
2021/05/24 06:28:04;;;;;;;0.68;0.40;;;;;;;19.57;45.22;100712.94;5031268;28;20117;-58
2021/05/24 06:30:29;;;;;;;0.90;0.50;;;;;;;19.55;44.90;100713.09;5031545;28;20521;-57
2021/05/24 06:33:00;;;;;;;1.85;0.50;;;;;;;19.57;45.00;100702.38;5031038;28;20037;-58
2021/05/24 06:35:25;;;;;;;1.08;0.50;;;;;;;19.60;45.21;100714.47;5031268;28;20033;-58
2021/05/24 06:37:54;;;;;;;0.82;0.45;;;;;;;19.60;44.91;100712.66;5030754;28;20036;-58
2021/05/24 06:40:19;;;;;;;1.27;0.60;;;;;;;19.60;45.06;100701.25;5031431;28;20110;-58
2021/05/24 06:42:45;;;;;;;1.27;0.57;;;;;;;19.60;45.29;100715.31;5031558;28;20061;-59
2021/05/24 06:45:12;;;;;;;0.73;0.45;;;;;;;19.62;45.12;100713.34;5032863;28;20100;-59
2021/05/24 06:47:38;;;;;;;1.98;0.77;;;;;;;19.62;45.46;100701.97;5035394;28;20108;-59
2021/05/24 06:50:05;;;;;;;1.25;0.50;;;;;;;19.62;45.82;100708.06;5034828;28;20156;-57
2021/05/24 06:52:30;;;;;;;1.83;0.50;;;;;;;19.64;45.97;100714.06;5034004;28;20022;-58
2021/05/24 06:54:56;;;;;;;2.80;1.10;;;;;;;19.64;45.83;100708.75;5034895;28;20025;-59
2021/05/24 06:57:21;;;;;;;1.23;0.68;;;;;;;19.64;46.02;100707.94;5034668;28;20464;-58
2021/05/24 06:59:46;;;;;;;1.85;0.50;;;;;;;19.63;46.01;100704.47;5034586;28;20029;-58
2021/05/24 07:02:12;;;;;;;2.30;0.60;;;;;;;19.65;45.99;100705.16;5034821;28;20029;-59
2021/05/24 07:04:37;;;;;;;4.22;0.95;;;;;;;19.66;46.33;100711.28;5034733;28;20285;-58
2021/05/24 07:07:04;;;;;;;1.13;0.60;;;;;;;19.66;46.45;100711.28;5033632;28;20025;-59
2021/05/24 07:09:30;;;;;;;1.13;0.47;;;;;;;19.65;46.34;100707.81;5034702;28;20030;-59
2021/05/24 07:11:55;;;;;;;1.67;0.68;;;;;;;19.66;46.60;100713.91;5034627;28;20055;-59
2021/05/24 07:14:20;;;;;;;2.53;0.65;;;;;;;19.65;46.08;100713.09;5033954;28;20637;-58
2021/05/24 07:16:45;;;;;;;0.82;0.40;;;;;;;19.64;46.39;100697.38;5034611;28;20424;-59
2021/05/24 07:19:11;;;;;;;1.95;0.68;;;;;;;19.63;46.67;100712.41;5034341;28;20108;-58
2021/05/24 07:21:39;;;;;;;1.60;0.60;;;;;;;19.63;46.68;100708.91;5033790;28;20030;-59
2021/05/24 07:24:04;;;;;;;1.90;0.50;;;;;;;19.62;46.47;100709.91;5034008;28;20025;-59
2021/05/24 07:26:29;;;;;;;1.80;0.70;;;;;;;19.58;46.36;100712.81;5034758;28;20425;-60
2021/05/24 07:28:54;;;;;;;1.30;0.53;;;;;;;19.58;46.71;100710.16;5033560;28;20096;-59
2021/05/24 07:31:20;;;;;;;1.67;0.60;;;;;;;19.58;46.67;100712.81;5034033;28;20357;-58
2021/05/24 07:33:45;;;;;;;3.22;0.77;;;;;;;19.57;47.10;100716.41;5034654;28;20290;-59
2021/05/24 07:36:10;;;;;;;2.08;0.63;;;;;;;19.58;46.82;100704.88;5033268;28;20101;-60
2021/05/24 07:38:35;;;;;;;2.23;0.60;;;;;;;19.57;47.24;100716.41;5034132;28;20040;-59
2021/05/24 07:41:01;;;;;;;3.05;0.80;;;;;;;19.57;47.12;100712.94;5033793;28;20340;-59
2021/05/24 07:43:26;;;;;;;1.75;0.60;;;;;;;19.65;46.83;100718.38;5034327;28;20021;-59
2021/05/24 07:45:52;;;;;;;0.88;0.50;;;;;;;19.68;46.79;100707.53;5034344;28;20048;-58
2021/05/24 07:48:17;;;;;;;0.75;0.50;;;;;;;19.73;46.81;100713.22;5034351;28;20496;-58
2021/05/24 07:50:42;;;;;;;1.63;0.60;;;;;;;19.77;46.80;100705.06;5035935;28;20496;-58
2021/05/24 07:53:11;;;;;;;2.20;0.77;;;;;;;19.81;46.98;100704.63;5033873;28;20021;-57
2021/05/24 07:55:36;;;;;;;2.90;0.73;;;;;;;19.83;46.78;100707.97;5033699;28;20021;-57
2021/05/24 07:58:02;;;;;;;1.35;0.52;;;;;;;19.85;46.95;100710.47;5033849;28;20064;-60
2021/05/24 08:00:28;;;;;;;3.95;0.70;;;;;;;19.86;46.89;100702.41;5034142;28;20091;-60
2021/05/24 08:02:56;;;;;;;1.90;0.60;;;;;;;19.86;46.75;100709.50;5033640;28;20477;-58
2021/05/24 08:05:21;;;;;;;2.05;0.60;;;;;;;19.87;46.73;100709.38;5033637;28;20036;-58
2021/05/24 08:07:47;;;;;;;2.25;0.70;;;;;;;19.84;46.96;100700.88;5034215;28;20194;-57
2021/05/24 08:10:16;;;;;;;2.33;0.70;;;;;;;19.84;47.14;100709.66;5033184;28;20052;-57
2021/05/24 08:12:44;;;;;;;1.40;0.70;;;;;;;19.83;46.98;100699.22;5034243;28;20025;-57
2021/05/24 08:15:15;;;;;;;1.63;0.60;;;;;;;19.85;46.62;100708.69;5033815;28;20086;-58
2021/05/24 08:17:41;;;;;;;2.42;0.65;;;;;;;19.84;46.78;100711.47;5033163;28;20392;-57
2021/05/24 08:20:14;;;;;;;2.03;0.60;;;;;;;19.82;46.62;100703.69;5033248;28;20076;-58
2021/05/24 08:22:40;;;;;;;2.28;0.50;;;;;;;19.82;46.76;100708.09;5033715;28;20028;-58
2021/05/24 08:25:07;;;;;;;1.77;0.52;;;;;;;19.81;46.82;100696.72;5032550;28;20030;-58
2021/05/24 08:27:33;;;;;;;1.52;0.55;;;;;;;19.80;46.58;100702.97;5033373;28;20045;-58
2021/05/24 08:29:58;;;;;;;1.52;0.50;;;;;;;19.79;46.78;100701.31;5033428;28;20030;-58
2021/05/24 08:32:23;;;;;;;1.65;0.75;;;;;;;19.79;46.83;100701.31;5032435;28;20017;-57
2021/05/24 08:34:51;;;;;;;2.00;0.63;;;;;;;19.78;46.70;100699.63;5033338;28;20388;-58
2021/05/24 08:37:16;;;;;;;1.08;0.60;;;;;;;19.78;46.98;100699.63;5032565;28;20112;-58
2021/05/24 08:39:43;;;;;;;1.95;0.65;;;;;;;19.80;46.92;100699.50;5033827;28;20030;-58
2021/05/24 08:42:09;;;;;;;1.25;0.50;;;;;;;19.80;46.90;100707.41;5033133;28;20026;-59
2021/05/24 08:44:37;;;;;;;0.85;0.50;;;;;;;19.78;46.96;100699.63;5032536;28;20087;-57
2021/05/24 08:47:03;;;;;;;2.35;0.68;;;;;;;19.75;46.93;100692.75;5032551;28;20035;-57
2021/05/24 08:49:29;;;;;;;1.63;0.47;;;;;;;19.77;46.83;100699.75;5033113;28;20088;-59
2021/05/24 08:51:55;;;;;;;1.55;0.70;;;;;;;19.75;47.00;100697.22;5032191;28;20421;-58
2021/05/24 08:54:21;;;;;;;1.65;0.73;;;;;;;19.74;47.02;100692.91;5032405;28;20076;-59
2021/05/24 08:56:49;;;;;;;1.27;0.60;;;;;;;19.71;46.85;100686.09;5032882;28;20018;-58
2021/05/24 08:59:17;;;;;;;1.88;0.70;;;;;;;19.72;47.34;100693.03;5031768;28;20030;-59
2021/05/24 09:01:42;;;;;;;4.05;0.70;;;;;;;19.72;47.10;100694.84;5032691;28;20473;-57
2021/05/24 09:04:10;;;;;;;2.72;0.70;;;;;;;19.72;47.36;100692.22;5032568;28;20113;-58
2021/05/24 09:06:41;;;;;;;4.85;0.70;;;;;;;19.68;47.32;100688.19;5031683;28;20025;-58
2021/05/24 09:09:09;;;;;;;0.98;0.50;;;;;;;19.70;47.44;100694.16;5032481;28;20034;-59
2021/05/24 09:11:36;;;;;;;0.85;0.50;;;;;;;19.72;47.39;100692.22;5032625;28;20025;-58
2021/05/24 09:14:11;;;;;;;2.78;0.68;;;;;;;19.71;47.51;100691.38;5031766;28;20017;-59
2021/05/24 09:16:37;;;;;;;1.55;0.60;;;;;;;19.71;47.33;100690.53;5032553;28;20370;-60
2021/05/24 09:19:17;;;;;;;2.33;0.60;;;;;;;19.69;47.46;100689.84;5032343;28;20151;-58
2021/05/24 09:22:00;;;;;;;1.17;0.50;;;;;;;19.71;47.55;100690.53;5031624;28;20397;-57
2021/05/24 09:24:31;;;;;;;2.83;1.05;;;;;;;19.69;47.48;100695.13;5032374;28;20037;-59
2021/05/24 09:26:58;;;;;;;1.45;0.60;;;;;;;19.68;47.58;100690.84;5031911;28;20025;-58
2021/05/24 09:29:25;;;;;;;1.15;0.60;;;;;;;19.64;47.63;100679.69;5031703;28;20056;-57
2021/05/24 09:32:14;;;;;;;1.92;0.63;;;;;;;19.64;47.64;100689.44;5032387;28;20017;-57
2021/05/24 09:34:40;;;;;;;1.85;0.60;;;;;;;19.63;47.56;100693.88;5031501;28;20025;-59
2021/05/24 09:37:06;;;;;;;1.60;0.70;;;;;;;19.62;47.71;100700.13;5031954;28;20037;-59
2021/05/24 09:39:34;;;;;;;1.73;0.60;;;;;;;19.62;47.53;100696.69;5031886;28;20132;-58
2021/05/24 09:42:04;;;;;;;1.27;0.50;;;;;;;19.60;47.80;100695.94;5031381;28;20029;-58
2021/05/24 09:44:32;;;;;;;1.27;0.65;;;;;;;19.58;47.95;100693.44;5032066;28;20461;-57
2021/05/24 09:46:58;;;;;;;1.15;0.47;;;;;;;19.59;48.16;100692.47;5031989;28;20037;-58
2021/05/24 09:49:27;;;;;;;1.35;0.60;;;;;;;19.59;48.15;100695.13;5030960;28;20036;-57
2021/05/24 09:51:52;;;;;;;1.80;0.57;;;;;;;19.60;48.13;100685.38;5031916;28;20103;-59
2021/05/24 09:54:21;;;;;;;1.58;0.65;;;;;;;19.62;48.25;100683.47;5032302;28;20057;-58
2021/05/24 09:56:47;;;;;;;0.95;0.50;;;;;;;19.63;48.24;100680.69;5031480;28;20030;-59
2021/05/24 09:59:16;;;;;;;2.78;0.73;;;;;;;19.66;48.29;100679.53;5031646;28;20040;-58
2021/05/24 10:01:45;;;;;;;2.00;0.60;;;;;;;19.67;48.19;100679.41;5031055;28;20029;-59
2021/05/24 10:04:13;;;;;;;0.95;0.52;;;;;;;19.69;48.50;100676.63;5031630;28;20018;-59
2021/05/24 10:06:39;;;;;;;1.77;0.68;;;;;;;19.69;48.38;100673.97;5031790;28;20109;-58
2021/05/24 10:09:06;;;;;;;1.60;0.60;;;;;;;19.68;48.64;100670.50;5031222;28;20025;-56
2021/05/24 10:11:38;;;;;;;1.77;0.60;;;;;;;19.68;48.68;100670.50;5032175;28;20033;-57
2021/05/24 10:14:07;;;;;;;2.15;0.60;;;;;;;19.67;48.86;100671.47;5031635;28;20071;-58
2021/05/24 10:16:36;;;;;;;1.27;0.47;;;;;;;19.64;48.46;100663.81;5031080;28;20032;-57
2021/05/24 10:19:05;;;;;;;1.25;0.55;;;;;;;19.66;48.76;100661.03;5031705;28;20473;-59
2021/05/24 10:21:31;;;;;;;1.42;0.60;;;;;;;19.67;48.92;100666.19;5036131;28;20030;-60
2021/05/24 10:23:56;;;;;;;2.13;0.60;;;;;;;19.67;48.85;100668.84;5035314;28;20067;-59
2021/05/24 10:26:23;;;;;;;0.82;0.52;;;;;;;19.69;48.58;100655.47;5035605;28;20389;-59
2021/05/24 10:28:49;;;;;;;0.60;0.50;;;;;;;19.70;48.70;100655.34;5035763;28;20101;-58
2021/05/24 10:31:27;;;;;;;1.98;0.55;;;;;;;19.73;49.09;100657.69;5034651;28;20021;-59
2021/05/24 10:33:53;;;;;;;1.52;0.60;;;;;;;19.79;49.38;100661.66;5036099;28;20029;-59
2021/05/24 10:36:24;;;;;;;1.33;0.50;;;;;;;19.85;49.16;100653.16;5035533;28;20366;-58
2021/05/24 10:39:13;;;;;;;2.00;0.65;;;;;;;19.93;48.76;100652.41;5034924;28;20029;-57
2021/05/24 10:41:44;;;;;;;2.08;0.70;;;;;;;20.00;48.92;100658.84;5035574;28;20132;-58
2021/05/24 10:44:12;;;;;;;1.80;0.68;;;;;;;20.06;48.99;100646.84;5034572;28;20456;-59
2021/05/24 10:46:38;;;;;;;1.42;0.63;;;;;;;20.16;48.94;100644.19;5035696;28;20021;-59
2021/05/24 10:49:12;;;;;;;2.08;0.60;;;;;;;20.20;48.76;100645.56;5035214;28;20030;-58
2021/05/24 10:51:47;;;;;;;1.17;0.60;;;;;;;20.21;48.64;100648.06;5034701;28;20060;-59
2021/05/24 10:54:21;;;;;;;1.33;0.65;;;;;;;20.18;49.12;100645.69;5035127;28;20021;-59
2021/05/24 10:56:59;;;;;;;1.48;0.50;;;;;;;20.16;49.06;100644.19;5035585;28;20049;-57
2021/05/24 10:59:40;;;;;;;1.08;0.60;;;;;;;20.14;49.12;100646.13;5034284;28;20026;-57
2021/05/24 11:02:28;;;;;;;1.80;0.57;;;;;;;20.12;49.19;100640.97;5034916;28;20061;-58
2021/05/24 11:05:07;;;;;;;1.20;0.60;;;;;;;20.10;48.87;100643.75;5034560;28;20331;-58
2021/05/24 11:07:39;;;;;;;1.42;0.60;;;;;;;20.07;48.99;100643.22;5035331;28;20159;-58
2021/05/24 11:10:19;;;;;;;1.25;0.60;;;;;;;20.05;49.31;100643.34;5034897;28;20021;-58
2021/05/24 11:12:47;;;;;;;1.52;0.70;;;;;;;20.03;49.28;100639.22;5034423;28;20407;-58
2021/05/24 11:15:43;;;;;;;1.10;0.52;;;;;;;20.00;49.36;100637.66;5034548;28;20138;-59
2021/05/24 11:18:08;;;;;;;3.40;0.68;;;;;;;19.98;49.38;100638.78;5029400;28;20385;-59
2021/05/24 11:20:35;;;;;;;1.55;0.60;;;;;;;19.94;49.33;100647.00;5033955;28;20022;-57
2021/05/24 11:25:50;;;;;;;1.42;0.60;;;;;;;19.92;49.59;100648.94;5034969;28;20072;-58
2021/05/24 11:28:16;;;;;;;1.45;0.50;;;;;;;19.91;49.63;100646.44;5033826;28;20041;-59